createdAt,value
2022-11-29T00:01:31.143Z,3.94
2022-11-29T00:03:58.614Z,3.91
2022-11-29T00:06:28.417Z,3.95
2022-11-29T00:08:57.213Z,3.96
2022-11-29T00:11:46.106Z,3.94
2022-11-29T00:14:17.098Z,4.00
2022-11-29T00:16:44.248Z,4.01
2022-11-29T00:19:13.564Z,3.93
2022-11-29T00:21:40.533Z,3.93
2022-11-29T00:24:08.139Z,3.93
2022-11-29T00:26:37.231Z,3.90
2022-11-29T00:29:05.011Z,3.87
2022-11-29T00:31:33.064Z,3.84
2022-11-29T00:34:06.673Z,3.83
2022-11-29T00:36:35.225Z,3.86
2022-11-29T00:39:04.399Z,4.01
2022-11-29T00:41:32.269Z,3.87
2022-11-29T00:43:59.280Z,3.88
2022-11-29T00:46:26.260Z,3.98
2022-11-29T00:48:53.273Z,3.91
2022-11-29T00:51:20.349Z,3.86
2022-11-29T00:53:47.526Z,3.90
2022-11-29T00:56:14.674Z,3.85
2022-11-29T00:58:43.673Z,3.78
2022-11-29T01:01:11.907Z,3.67
2022-11-29T01:03:39.169Z,3.69
2022-11-29T01:06:11.829Z,3.63
2022-11-29T01:08:39.491Z,3.63
2022-11-29T01:11:14.933Z,3.57
2022-11-29T01:13:42.533Z,3.47
2022-11-29T01:16:10.355Z,3.38
2022-11-29T01:18:38.151Z,3.40
2022-11-29T01:21:08.701Z,3.35
2022-11-29T01:23:37.043Z,3.40
2022-11-29T01:26:15.036Z,3.49
2022-11-29T01:28:42.858Z,3.42
2022-11-29T01:31:18.140Z,3.42
2022-11-29T01:33:46.106Z,3.34
2022-11-29T01:36:13.795Z,3.31
2022-11-29T01:38:42.637Z,3.48
2022-11-29T01:41:14.883Z,3.41
2022-11-29T01:44:17.987Z,3.34
2022-11-29T01:46:46.771Z,3.39
2022-11-29T01:49:42.102Z,3.28
2022-11-29T01:52:13.734Z,3.36
2022-11-29T01:54:48.521Z,3.30
2022-11-29T01:57:16.475Z,3.30
2022-11-29T01:59:48.800Z,3.28
2022-11-29T02:02:24.903Z,3.27
2022-11-29T02:04:52.537Z,3.40
2022-11-29T02:07:19.678Z,3.32
2022-11-29T02:09:46.779Z,3.34
2022-11-29T02:12:38.738Z,3.39
2022-11-29T02:15:33.772Z,3.32
2022-11-29T02:18:15.698Z,3.31
2022-11-29T02:21:16.384Z,3.29
2022-11-29T02:24:42.179Z,3.31
2022-11-29T02:27:48.050Z,3.18
2022-11-29T02:30:38.920Z,3.14
2022-11-29T02:33:58.208Z,3.10
2022-11-29T03:14:57.380Z,3.23
2022-11-29T03:21:27.568Z,3.22
2022-11-29T03:24:00.940Z,3.22
2022-11-29T03:26:41.637Z,3.35
2022-11-29T03:29:19.348Z,3.41
2022-11-29T03:32:34.236Z,3.41
2022-11-29T03:35:25.798Z,3.47
2022-11-29T03:38:31.810Z,3.54
2022-11-29T03:41:23.289Z,3.66
2022-11-29T03:44:13.433Z,3.66
2022-11-29T03:47:03.559Z,3.75
2022-11-29T03:49:45.151Z,3.78
2022-11-29T03:52:37.823Z,3.69
2022-11-29T03:55:46.704Z,3.62
2022-11-29T03:58:49.466Z,3.64
2022-11-29T04:02:00.376Z,3.63
2022-11-29T04:05:10.196Z,3.66
2022-11-29T04:08:27.829Z,3.75
2022-11-29T04:11:37.312Z,3.80
2022-11-29T04:14:31.049Z,3.83
2022-11-29T04:17:56.155Z,3.90
2022-11-29T04:21:13.231Z,3.91
2022-11-29T04:24:24.847Z,3.89
2022-11-29T04:27:10.420Z,3.95
2022-11-29T04:30:14.347Z,3.95
2022-11-29T04:48:59.116Z,3.93
2022-11-29T04:52:09.826Z,3.98
2022-11-29T04:54:55.757Z,4.03
2022-11-29T04:57:47.745Z,4.01
2022-11-29T05:00:21.385Z,4.00
2022-11-29T05:03:31.609Z,4.02
2022-11-29T05:06:15.800Z,4.15
2022-11-29T05:09:19.615Z,4.16
2022-11-29T05:12:45.469Z,4.13
2022-11-29T05:15:56.291Z,4.11
2022-11-29T05:18:53.772Z,3.98
2022-11-29T05:21:48.231Z,3.92
2022-11-29T05:24:50.835Z,3.96
2022-11-29T05:56:22.879Z,4.03
2022-11-29T05:58:56.127Z,4.04
2022-11-29T06:01:30.286Z,4.04
2022-11-29T06:04:23.668Z,4.07
2022-11-29T06:07:03.541Z,4.10
2022-11-29T06:10:06.887Z,4.13
2022-11-29T06:12:38.141Z,4.18
2022-11-29T06:15:23.706Z,4.28
2022-11-29T06:18:11.289Z,4.29
2022-11-29T06:21:08.505Z,4.33
2022-11-29T06:23:48.709Z,4.39
2022-11-29T06:26:47.767Z,4.48
2022-11-29T06:33:18.223Z,4.53
2022-11-29T06:36:28.374Z,4.61
2022-11-29T06:38:55.883Z,4.59
2022-11-29T06:41:24.604Z,4.67
2022-11-29T06:43:52.302Z,4.67
2022-11-29T06:46:53.251Z,4.75
2022-11-29T06:50:03.578Z,4.65
2022-11-29T06:53:22.327Z,4.72
2022-11-29T06:56:17.770Z,4.85
2022-11-29T06:59:24.933Z,4.81
2022-11-29T07:02:02.124Z,4.82
2022-11-29T07:05:12.996Z,4.87
2022-11-29T07:07:42.075Z,4.94
2022-11-29T07:10:17.929Z,4.97
2022-11-29T07:12:47.823Z,5.00
2022-11-29T07:15:20.502Z,5.09
2022-11-29T07:18:07.542Z,5.11
2022-11-29T07:21:42.346Z,5.02
2022-11-29T07:24:43.693Z,5.03
2022-11-29T07:27:33.592Z,5.16
2022-11-29T07:30:21.851Z,5.27
2022-11-29T07:33:20.855Z,5.36
2022-11-29T07:35:59.836Z,5.45
2022-11-29T07:39:19.136Z,5.54
2022-11-29T07:42:16.757Z,5.59
2022-11-29T07:45:12.633Z,5.63
2022-11-29T07:47:39.638Z,5.70
2022-11-29T07:50:07.833Z,5.80
2022-11-29T07:52:34.991Z,5.84
2022-11-29T07:55:02.504Z,5.78
2022-11-29T07:57:29.529Z,5.74
2022-11-29T07:59:58.944Z,5.74
2022-11-29T08:02:30.909Z,5.84
2022-11-29T08:04:58.740Z,5.90
2022-11-29T08:07:26.042Z,5.99
2022-11-29T08:09:53.120Z,5.98
2022-11-29T08:12:20.377Z,5.99
2022-11-29T08:14:47.604Z,6.07
2022-11-29T08:17:14.862Z,6.00
2022-11-29T08:19:41.892Z,5.99
2022-11-29T08:22:08.908Z,6.04
2022-11-29T08:24:35.957Z,6.12
2022-11-29T08:27:03.093Z,6.15
2022-11-29T08:29:30.355Z,6.18
2022-11-29T08:31:58.600Z,6.21
2022-11-29T08:34:26.206Z,6.22
2022-11-29T08:36:56.670Z,6.09
2022-11-29T08:39:23.738Z,6.18
2022-11-29T08:41:50.791Z,6.09
2022-11-29T08:44:18.787Z,6.14
2022-11-29T08:47:04.855Z,6.13
2022-11-29T08:49:32.166Z,6.14
2022-11-29T08:52:17.975Z,6.19
2022-11-29T08:54:45.223Z,6.26
2022-11-29T08:59:59.767Z,6.42
2022-11-29T09:02:26.955Z,6.43
2022-11-29T09:04:54.066Z,6.44
2022-11-29T09:07:21.160Z,6.49
2022-11-29T09:09:49.031Z,6.53
2022-11-29T09:12:16.209Z,6.57
2022-11-29T09:14:43.584Z,6.51
2022-11-29T12:46:30.315Z,7.52
2022-11-29T12:49:37.868Z,7.61
2022-11-29T12:52:29.454Z,7.68
2022-11-29T12:55:07.478Z,7.63
2022-11-29T12:57:46.195Z,7.61
2022-11-29T13:00:20.066Z,7.61
2022-11-29T13:03:04.253Z,7.59
2022-11-29T13:06:05.089Z,7.58
2022-11-29T13:09:34.393Z,7.52
2022-11-29T13:12:21.226Z,7.51
2022-11-29T13:15:21.713Z,7.48
2022-11-29T13:18:23.069Z,7.40
2022-11-29T13:21:09.925Z,7.27
2022-11-29T13:24:10.309Z,7.26
2022-11-29T13:26:40.996Z,7.31
2022-11-29T13:29:15.092Z,7.37
2022-11-29T13:31:42.881Z,7.42
2022-11-29T13:34:22.017Z,7.17
2022-11-29T13:37:27.427Z,7.07
2022-11-29T13:40:23.709Z,7.05
2022-11-29T13:43:35.308Z,7.02
2022-11-29T13:46:30.612Z,7.01
2022-11-29T13:48:57.933Z,7.04
2022-11-29T13:51:34.631Z,7.05
2022-11-29T13:54:05.150Z,7.04
2022-11-29T13:56:48.084Z,7.03
2022-11-29T13:59:34.102Z,7.00
2022-11-29T14:02:01.622Z,6.97
2022-11-29T14:04:37.739Z,6.95
2022-11-29T14:07:11.503Z,6.92
2022-11-29T14:09:59.295Z,6.91
2022-11-29T14:12:57.253Z,6.90
2022-11-29T14:15:31.310Z,6.80
2022-11-29T14:18:09.182Z,6.86
2022-11-29T14:20:54.269Z,6.78
2022-11-29T14:23:33.739Z,6.70
2022-11-29T14:26:28.025Z,6.65
2022-11-29T14:28:56.059Z,6.67
2022-11-29T14:31:53.391Z,6.63
2022-11-29T14:34:28.260Z,6.63
2022-11-29T14:37:06.821Z,6.66
2022-11-29T14:39:55.290Z,6.64
2022-11-29T14:42:25.739Z,6.62
2022-11-29T14:45:04.943Z,6.62
2022-11-29T14:47:39.095Z,6.64
2022-11-29T14:50:10.737Z,6.64
2022-11-29T14:52:51.678Z,6.66
2022-11-29T14:55:39.138Z,6.64
2022-11-29T14:58:18.268Z,6.64
2022-11-29T15:00:55.370Z,6.66
2022-11-29T15:03:45.210Z,6.73
2022-11-29T15:06:23.390Z,6.64
2022-11-29T15:09:16.965Z,6.58
2022-11-29T15:12:14.786Z,6.55
2022-11-29T15:15:20.466Z,6.51
2022-11-29T15:18:46.143Z,6.50
2022-11-29T15:21:58.395Z,6.47
2022-11-29T15:24:28.673Z,6.39
2022-11-29T15:26:58.632Z,6.27
2022-11-29T15:29:26.964Z,6.20
2022-11-29T15:31:56.847Z,6.16
2022-11-29T15:34:37.136Z,6.21
2022-11-29T15:37:04.841Z,6.21
2022-11-29T15:39:34.743Z,6.13
2022-11-29T15:42:13.643Z,6.13
2022-11-29T15:44:48.390Z,6.18
2022-11-29T15:47:26.806Z,6.08
2022-11-29T15:49:54.734Z,6.17
2022-11-29T15:52:29.806Z,6.11
2022-11-29T15:55:04.179Z,6.08
2022-11-29T15:57:46.231Z,6.01
2022-11-29T16:00:20.559Z,5.92
2022-11-29T16:02:54.342Z,5.88
2022-11-29T16:05:31.362Z,5.89
2022-11-29T16:08:17.938Z,5.91
2022-11-29T16:10:50.619Z,5.93
2022-11-29T16:13:34.062Z,5.92
2022-11-29T16:16:24.993Z,5.96
2022-11-29T16:18:52.066Z,5.97
2022-11-29T16:21:39.477Z,6.05
2022-11-29T16:24:19.728Z,6.05
2022-11-29T16:26:49.852Z,6.02
2022-11-29T16:29:45.382Z,5.97
2022-11-29T16:32:15.166Z,5.95
2022-11-29T16:34:43.965Z,5.95
2022-11-29T16:37:19.000Z,5.91
2022-11-29T16:39:49.581Z,5.86
2022-11-29T16:42:43.412Z,5.81
2022-11-29T16:45:39.454Z,5.85
2022-11-29T16:48:30.523Z,5.90
2022-11-29T16:51:42.688Z,5.83
2022-11-29T16:54:27.976Z,5.80
2022-11-29T16:56:57.452Z,5.74
2022-11-29T16:59:28.358Z,5.75
2022-11-29T17:01:57.072Z,5.77
2022-11-29T17:04:25.152Z,5.78
2022-11-29T17:06:56.809Z,5.82
2022-11-29T17:09:27.527Z,5.79
2022-11-29T17:11:56.280Z,5.78
2022-11-29T17:14:23.412Z,5.80
2022-11-29T17:16:51.960Z,5.84
2022-11-29T17:19:22.157Z,5.83
2022-11-29T17:21:49.668Z,5.87
2022-11-29T17:24:19.779Z,5.96
2022-11-29T17:26:47.098Z,5.96
2022-11-29T17:29:15.944Z,5.94
2022-11-29T17:31:44.374Z,5.94
2022-11-29T17:34:11.681Z,5.92
2022-11-29T17:36:38.827Z,5.92
2022-11-29T17:39:06.423Z,5.92
2022-11-29T17:41:33.947Z,5.91
2022-11-29T17:44:01.320Z,5.93
2022-11-29T17:46:34.254Z,5.92
2022-11-29T17:49:03.204Z,5.93
2022-11-29T17:54:17.729Z,5.99
2022-11-29T17:56:44.632Z,5.99
2022-11-29T17:59:11.606Z,6.00
2022-11-29T18:01:38.850Z,6.00
2022-11-29T18:04:08.540Z,5.99
2022-11-29T18:06:38.184Z,5.95
2022-11-29T18:09:07.120Z,5.96
2022-11-29T18:11:46.397Z,5.99
2022-11-29T18:14:16.633Z,5.95
2022-11-29T18:16:45.820Z,5.93
2022-11-29T18:19:15.834Z,5.90
2022-11-29T18:21:43.019Z,5.88
2022-11-29T18:24:10.389Z,5.91
2022-11-29T18:26:38.698Z,5.90
2022-11-29T18:29:06.494Z,5.96
2022-11-29T18:31:35.668Z,5.85
2022-11-29T18:34:07.237Z,5.81
2022-11-29T18:36:37.558Z,5.84
2022-11-29T18:39:08.821Z,5.80
2022-11-29T18:41:36.264Z,5.80
2022-11-29T18:44:09.234Z,5.80
2022-11-29T18:46:38.348Z,5.73
2022-11-29T18:49:07.845Z,5.76
2022-11-29T18:51:35.987Z,5.69
2022-11-29T18:54:06.909Z,5.69
2022-11-29T18:56:35.893Z,5.70
2022-11-29T18:59:06.334Z,5.72
2022-11-29T19:01:35.702Z,5.69
2022-11-29T19:04:02.757Z,5.71
2022-11-29T19:06:38.918Z,5.77
2022-11-29T19:09:08.171Z,5.69
2022-11-29T19:11:35.229Z,5.62
2022-11-29T19:14:05.491Z,5.55
2022-11-29T19:16:34.750Z,5.66
2022-11-29T19:19:02.622Z,5.55
2022-11-29T19:21:32.110Z,5.48
2022-11-29T19:24:01.927Z,5.47
2022-11-29T19:26:30.911Z,5.45
2022-11-29T19:29:00.098Z,5.43
2022-11-29T19:31:28.249Z,5.45
2022-11-29T19:33:56.650Z,5.47
2022-11-29T19:36:28.794Z,5.48
2022-11-29T19:38:56.341Z,5.52
2022-11-29T19:41:29.661Z,5.50
2022-11-29T19:43:58.328Z,5.48
2022-11-29T19:46:28.624Z,5.41
2022-11-29T19:48:57.382Z,5.35
2022-11-29T19:51:25.612Z,5.30
2022-11-29T19:53:54.407Z,5.33
2022-11-29T19:56:22.627Z,5.28
2022-11-29T19:58:50.709Z,5.28
2022-11-29T20:01:23.225Z,5.28
2022-11-29T20:03:50.807Z,5.33
2022-11-29T20:06:20.196Z,5.30
2022-11-29T20:08:47.703Z,5.29
2022-11-29T20:11:20.578Z,5.33
2022-11-29T20:13:53.811Z,5.49
2022-11-29T20:16:22.323Z,5.45
2022-11-29T20:18:51.300Z,5.48
2022-11-29T20:21:22.389Z,5.51
2022-11-29T20:23:49.839Z,5.48
2022-11-29T20:26:20.019Z,5.52
2022-11-29T20:28:48.108Z,5.43
2022-11-29T20:31:17.945Z,5.44
2022-11-29T20:33:46.705Z,5.46
2022-11-29T20:36:43.623Z,5.41
2022-11-29T20:39:41.869Z,5.43
2022-11-29T20:42:55.223Z,5.41
2022-11-29T20:45:24.232Z,5.42
2022-11-29T20:47:58.845Z,5.38
2022-11-29T20:50:28.707Z,5.34
2022-11-29T20:53:30.061Z,5.36
2022-11-29T20:55:57.167Z,5.36
2022-11-29T20:58:27.066Z,5.36
2022-11-29T21:00:54.997Z,5.41
2022-11-29T21:03:22.952Z,5.40
2022-11-29T21:05:50.567Z,5.30
2022-11-29T21:08:21.213Z,5.34
2022-11-29T21:10:50.057Z,5.26
2022-11-29T21:13:19.017Z,5.23
2022-11-29T21:15:46.963Z,5.24
2022-11-29T21:18:24.931Z,5.19
2022-11-29T21:21:18.145Z,5.18
2022-11-29T21:23:55.530Z,5.23
2022-11-29T21:26:31.818Z,5.25
2022-11-29T21:29:16.446Z,5.28
2022-11-29T21:31:44.033Z,5.34
2022-11-29T21:34:11.291Z,5.34
2022-11-29T21:36:39.139Z,5.32
2022-11-29T21:39:07.894Z,5.32
2022-11-29T21:41:34.876Z,5.32
2022-11-29T21:44:07.081Z,5.29
2022-11-29T21:46:35.249Z,5.28
2022-11-29T21:49:02.432Z,5.29
2022-11-29T21:51:29.383Z,5.28
2022-11-29T21:53:56.491Z,5.31
2022-11-29T21:56:23.656Z,5.32
2022-11-29T21:58:50.567Z,5.35
2022-11-29T22:01:20.369Z,5.28
2022-11-29T22:03:47.501Z,5.19
2022-11-29T22:06:18.802Z,5.14
2022-11-29T22:08:45.816Z,5.10
2022-11-29T22:11:16.072Z,5.15
2022-11-29T22:14:02.802Z,5.17
2022-11-29T22:16:30.156Z,5.13
2022-11-29T22:18:57.334Z,5.07
2022-11-29T22:21:24.369Z,5.07
2022-11-29T22:23:52.767Z,5.01
2022-11-29T22:26:21.639Z,5.05
2022-11-29T22:28:48.823Z,5.06
2022-11-29T22:31:16.112Z,5.00
2022-11-29T22:33:43.288Z,5.00
2022-11-29T22:36:12.872Z,5.01
2022-11-29T22:38:40.708Z,4.97
2022-11-29T22:41:10.530Z,4.93
2022-11-29T22:43:38.784Z,4.91
2022-11-29T22:46:20.263Z,4.89
2022-11-29T22:48:49.346Z,4.88
2022-11-29T22:51:19.508Z,4.87
2022-11-29T22:53:54.853Z,4.77
2022-11-29T22:56:23.158Z,4.76
2022-11-29T22:58:50.351Z,4.82
2022-11-29T23:01:23.065Z,4.84
2022-11-29T23:03:55.054Z,4.83
2022-11-29T23:06:25.325Z,4.85
2022-11-29T23:08:54.378Z,4.92
2022-11-29T23:11:24.975Z,4.95
2022-11-29T23:13:52.020Z,4.97
2022-11-29T23:16:22.646Z,5.01
2022-11-29T23:18:50.361Z,5.08
2022-11-29T23:21:38.753Z,5.13
2022-11-29T23:24:06.563Z,5.09
2022-11-29T23:26:40.363Z,5.07
2022-11-29T23:29:15.798Z,5.07
2022-11-29T23:31:42.974Z,5.16
2022-11-29T23:34:09.969Z,5.11
2022-11-29T23:36:37.161Z,5.12
2022-11-29T23:39:05.932Z,5.09
2022-11-29T23:41:33.690Z,5.11
2022-11-29T23:44:02.599Z,5.11
2022-11-29T23:46:29.649Z,5.14
2022-11-29T23:48:56.736Z,5.18
2022-11-29T23:51:23.691Z,5.12
2022-11-29T23:53:52.441Z,5.13
2022-11-29T23:56:20.788Z,5.02
2022-11-29T23:58:48.038Z,5.01
